• Join FlightAware (Why Join?)
  • Login
  • US Flag 
03:34AM EDT


 

Airport Tracker/Info


-or-


 

Live Flight TrackerFlight Track Log ✈ ASQ5958 ✈ 02-May-2013 ✈ KORD - KTYS

Flight Track Log - Related Links

Times and Time Zones

All times are in EDT time to prevent confusion due to time zone crossing. See the ASQ5958 flight status page for this flight to view local times or setup timezone preferences in your user account.

Time Position Orientation Groundspeed Altitude Reporting Facility
EDT Latitude Longitude Course Direction KTS MPH feet Rate Location/Type
07:08PM 41.9833 -87.8667 169° South 145 167 2,500  Level Chicago TRACON
07:09PM 41.9500 -87.8167 132° Southeast 213 245 4,500 1,140 Climbing Chicago TRACON
07:10PM 41.8833 -87.7833 160° South 236 272 5,000 660 Climbing Chicago TRACON
07:13PM 41.7172 -87.7786 179° South 245 282 6,900 1,200 Climbing Chicago Center
07:14PM 41.1158 -87.4956 169° South  Level FlightAware Approximate
07:14PM 41.6531 -87.7383 155° Southeast 262 302 9,300  Level Chicago Center
07:15PM 41.5869 -87.6894 151° Southeast 271 312 11,400 1,320 Climbing Chicago Center
07:16PM 41.5103 -87.6344 152° Southeast 310 357 12,100 1,200 Climbing Chicago Center
07:17PM 41.4258 -87.5744 152° Southeast 339 390 13,900 1,500 Climbing Chicago Center
07:18PM 41.3400 -87.5097 150° Southeast 352 405 15,300 1,500 Climbing Chicago Center
07:19PM 41.2353 -87.4339 151° Southeast 357 411 17,000 1,500 Climbing Chicago Center
07:20PM 41.1433 -87.3686 152° Southeast 371 427 18,400 1,380 Climbing Chicago Center
07:21PM 41.0558 -87.3053 151° Southeast 362 417 19,900 1,200 Climbing Chicago Center
07:22PM 40.9656 -87.2417 152° Southeast 369 425 21,000 1,020 Climbing Chicago Center
07:23PM 40.8722 -87.1733 151° Southeast 383 441 22,100 1,200 Climbing Chicago Center
07:24PM 40.7786 -87.1081 152° Southeast 381 438 23,600 1,440 Climbing Chicago Center
07:25PM 40.6686 -87.0283 151° Southeast 387 445 25,100 1,500 Climbing Chicago Center
07:26PM 40.5750 -86.9628 152° Southeast 386 444 26,800 1,440 Climbing Chicago Center
07:27PM 40.4828 -86.8978 152° Southeast 379 436 28,100 1,200 Climbing Chicago Center
07:28PM 40.3903 -86.8325 152° Southeast 379 436 29,400 1,320 Climbing Chicago Center
07:29PM 40.2994 -86.7675 151° Southeast 375 432 30,900 720 Climbing Chicago Center
07:30PM 40.1833 -86.6886 153° Southeast 397 457 31,000  Climbing Chicago Center
07:31PM 40.0781 -86.6136 151° Southeast 429 494 31,000  Level Chicago Center
07:32PM 40.0114 -86.5669 152° Southeast 439 505 31,000  Level Indianapolis Center
07:33PM 39.9072 -86.4942 152° Southeast 432 497 31,000  Level Indianapolis Center
07:34PM 39.8025 -86.4231 152° Southeast 429 494 31,000  Level Indianapolis Center
07:35PM 39.6919 -86.3464 152° Southeast 439 505 31,000  Level Indianapolis Center
07:36PM 39.5722 -86.2650 152° Southeast 440 506 31,000  Level Indianapolis Center
07:37PM 39.4664 -86.1914 152° Southeast 437 503 31,000  Level Indianapolis Center
07:38PM 39.3589 -86.1194 153° Southeast 437 503 31,000  Level Indianapolis Center
07:39PM 39.2519 -86.0461 152° Southeast 437 503 31,000  Level Indianapolis Center
07:40PM 39.1450 -85.9742 152° Southeast 435 501 31,000  Level Indianapolis Center
07:41PM 39.0378 -85.9028 153° Southeast 437 503 31,000  Level Indianapolis Center
07:42PM 38.9303 -85.8308 152° Southeast 436 502 31,000  Level Indianapolis Center
07:43PM 38.8014 -85.7447 152° Southeast 436 502 31,000  Level Indianapolis Center
07:44PM 38.6931 -85.6711 152° Southeast 440 506 31,000  Level Indianapolis Center
07:45PM 38.5850 -85.5992 153° Southeast 440 506 31,000  Level Indianapolis Center
07:46PM 38.4747 -85.5264 153° Southeast 442 509 31,000  Level Indianapolis Center
07:47PM 38.3647 -85.4544 153° Southeast 442 509 31,000  Level Indianapolis Center
07:48PM 38.2558 -85.3817 152° Southeast 441 507 31,000  Level Indianapolis Center
07:49PM 38.1456 -85.3103 153° Southeast 442 509 31,000  Level Indianapolis Center
07:50PM 38.0336 -85.2397 154° Southeast 444 511 31,000  Level Indianapolis Center
07:51PM 37.9078 -85.1572 153° Southeast 443 510 31,000  Level Indianapolis Center
07:52PM 37.7983 -85.0853 153° Southeast 441 507 31,000  Level Indianapolis Center
07:53PM 37.6894 -85.0131 152° Southeast 442 509 31,000 -120 Level Indianapolis Center
07:54PM 37.5781 -84.9428 153° Southeast 444 511 30,800 -1,080 Descending Indianapolis Center
07:55PM 37.4700 -84.8742 153° Southeast 437 503 28,900 -2,100 Descending Indianapolis Center
07:57PM 37.3439 -84.7933 153° Southeast 437 503 26,600 -2,100 Descending Indianapolis Center
07:58PM 37.2364 -84.7256 153° Southeast 432 497 24,600 -1,800 Descending Indianapolis Center
07:59PM 37.1297 -84.6578 153° Southeast 432 497 23,000 -840 Descending Indianapolis Center
08:00PM 37.0247 -84.5917 153° Southeast 415 478 23,000 -60 Level Indianapolis Center
08:01PM 36.9167 -84.5231 153° Southeast 427 491 22,900 -1,260 Descending Indianapolis Center
08:02PM 36.8169 -84.4614 154° Southeast 421 484 20,500 -2,460 Descending Indianapolis Center
08:03PM 36.7233 -84.4011 153° Southeast 390 449 17,900 -2,220 Descending Indianapolis Center
08:04PM 36.6083 -84.3303 154° Southeast 394 453 16,000 -1,860 Descending Indianapolis Center
08:05PM 36.5167 -84.2725 153° Southeast 378 435 14,100 -1,800 Descending Indianapolis Center
08:06PM 36.4483 -84.2297 153° Southeast 325 374 12,400 -1,560 Descending Indianapolis Center
08:07PM 36.3586 -84.1739 153° Southeast 304 350 11,000 -900 Descending Indianapolis Center
08:07PM 36.3272 -84.1597 160° South 300 345 11,000 -240 Level Atlanta Center
08:08PM 36.2564 -84.1314 162° South 281 323 10,700 -780 Descending Atlanta Center
08:09PM 36.1875 -84.1289 178° South 261 300 9,500 -1,380 Descending Atlanta Center
08:10PM 36.1167 -84.1236 177° South 256 295 8,000 -1,320 Descending Atlanta Center
08:11PM 36.0500 -84.1183 176° South 256 295 6,900 -1,200 Descending Atlanta Center
08:12PM 35.9853 -84.1131 176° South 246 283 5,700 -1,380 Descending Atlanta Center
08:13PM 35.9269 -84.1081 176° South 229 264 4,200 -1,260 Descending Atlanta Center
08:14PM 35.8706 -84.1233 192° South 223 257 3,200 -540 Descending Atlanta Center
08:15PM 35.8164 -84.1436 197° South 217 250 3,200  Level Atlanta Center
08:17PM 35.8111 -83.9977 93° East  Level Estimated
08:24PM 35.8110 -83.9940 93° East  Level Estimated
08:25PM 35.8110 -83.9940 39° Northeast  Level Estimated
08:26PM 35.8110 -83.9940 39° Northeast  Level Estimated